sensor_id;sensor_type;location;lat;lon;timestamp;temperature;humidity
35523;DHT22;61478;50.820;4.330;2022-08-14T00:01:06;26.40;59.00
35523;DHT22;61478;50.820;4.330;2022-08-14T00:03:36;26.30;58.70
35523;DHT22;61478;50.820;4.330;2022-08-14T00:06:03;26.30;58.70
35523;DHT22;61478;50.820;4.330;2022-08-14T00:08:29;26.30;58.80
35523;DHT22;61478;50.820;4.330;2022-08-14T00:10:58;26.40;59.10
35523;DHT22;61478;50.820;4.330;2022-08-14T00:13:26;26.50;58.90
35523;DHT22;61478;50.820;4.330;2022-08-14T00:15:57;26.50;58.90
35523;DHT22;61478;50.820;4.330;2022-08-14T00:18:27;26.50;59.90
35523;DHT22;61478;50.820;4.330;2022-08-14T00:20:54;26.10;60.40
35523;DHT22;61478;50.820;4.330;2022-08-14T00:23:24;26.10;59.20
35523;DHT22;61478;50.820;4.330;2022-08-14T00:25:52;25.70;63.80
35523;DHT22;61478;50.820;4.330;2022-08-14T00:28:19;25.70;63.30
35523;DHT22;61478;50.820;4.330;2022-08-14T00:30:53;25.60;62.90
35523;DHT22;61478;50.820;4.330;2022-08-14T00:33:21;25.30;64.30
35523;DHT22;61478;50.820;4.330;2022-08-14T00:35:50;25.20;64.40
35523;DHT22;61478;50.820;4.330;2022-08-14T00:38:18;25.30;65.80
35523;DHT22;61478;50.820;4.330;2022-08-14T00:40:48;25.40;63.10
35523;DHT22;61478;50.820;4.330;2022-08-14T00:43:17;25.10;67.60
35523;DHT22;61478;50.820;4.330;2022-08-14T00:45:43;24.90;67.20
35523;DHT22;61478;50.820;4.330;2022-08-14T00:48:09;24.90;66.50
35523;DHT22;61478;50.820;4.330;2022-08-14T00:50:36;24.70;67.60
35523;DHT22;61478;50.820;4.330;2022-08-14T00:53:05;24.70;65.50
35523;DHT22;61478;50.820;4.330;2022-08-14T00:55:36;24.70;66.20
35523;DHT22;61478;50.820;4.330;2022-08-14T00:58:09;24.90;66.60
35523;DHT22;61478;50.820;4.330;2022-08-14T01:00:53;24.80;67.00
35523;DHT22;61478;50.820;4.330;2022-08-14T01:03:20;24.50;68.50
35523;DHT22;61478;50.820;4.330;2022-08-14T01:05:51;24.40;70.40
35523;DHT22;61478;50.820;4.330;2022-08-14T01:08:28;24.30;68.80
35523;DHT22;61478;50.820;4.330;2022-08-14T01:10:56;24.40;70.10
35523;DHT22;61478;50.820;4.330;2022-08-14T01:13:33;24.60;66.70
35523;DHT22;61478;50.820;4.330;2022-08-14T01:16:03;24.60;70.00
35523;DHT22;61478;50.820;4.330;2022-08-14T01:18:31;24.60;69.30
35523;DHT22;61478;50.820;4.330;2022-08-14T01:21:24;24.60;70.00
35523;DHT22;61478;50.820;4.330;2022-08-14T01:23:56;24.40;71.50
35523;DHT22;61478;50.820;4.330;2022-08-14T01:26:26;24.30;70.50
35523;DHT22;61478;50.820;4.330;2022-08-14T01:28:57;24.30;70.20
35523;DHT22;61478;50.820;4.330;2022-08-14T01:31:26;24.30;68.00
35523;DHT22;61478;50.820;4.330;2022-08-14T01:33:58;24.30;69.50
35523;DHT22;61478;50.820;4.330;2022-08-14T01:36:28;24.30;69.80
35523;DHT22;61478;50.820;4.330;2022-08-14T01:39:03;24.20;71.10
35523;DHT22;61478;50.820;4.330;2022-08-14T01:41:30;24.30;70.30
35523;DHT22;61478;50.820;4.330;2022-08-14T01:44:02;24.20;71.30
35523;DHT22;61478;50.820;4.330;2022-08-14T01:46:35;24.10;72.30
35523;DHT22;61478;50.820;4.330;2022-08-14T01:49:04;24.20;69.70
35523;DHT22;61478;50.820;4.330;2022-08-14T01:51:34;24.10;70.40
35523;DHT22;61478;50.820;4.330;2022-08-14T01:54:09;24.10;70.70
35523;DHT22;61478;50.820;4.330;2022-08-14T01:56:40;24.00;70.90
35523;DHT22;61478;50.820;4.330;2022-08-14T02:01:42;24.00;69.30
35523;DHT22;61478;50.820;4.330;2022-08-14T02:04:08;23.90;71.40
35523;DHT22;61478;50.820;4.330;2022-08-14T02:06:37;23.80;70.50
35523;DHT22;61478;50.820;4.330;2022-08-14T02:09:07;23.60;71.30
35523;DHT22;61478;50.820;4.330;2022-08-14T02:11:34;23.50;71.70
35523;DHT22;61478;50.820;4.330;2022-08-14T02:14:05;23.70;71.80
35523;DHT22;61478;50.820;4.330;2022-08-14T02:16:35;23.70;71.60
35523;DHT22;61478;50.820;4.330;2022-08-14T02:19:15;23.70;72.10
35523;DHT22;61478;50.820;4.330;2022-08-14T02:21:44;23.80;71.70
35523;DHT22;61478;50.820;4.330;2022-08-14T02:24:14;23.70;70.90
35523;DHT22;61478;50.820;4.330;2022-08-14T02:26:43;23.50;72.00
35523;DHT22;61478;50.820;4.330;2022-08-14T02:29:17;23.30;71.60
35523;DHT22;61478;50.820;4.330;2022-08-14T02:31:51;23.10;72.30
35523;DHT22;61478;50.820;4.330;2022-08-14T02:34:22;23.00;73.60
35523;DHT22;61478;50.820;4.330;2022-08-14T02:36:52;23.00;72.90
35523;DHT22;61478;50.820;4.330;2022-08-14T02:39:18;23.10;73.50
35523;DHT22;61478;50.820;4.330;2022-08-14T02:41:44;23.10;74.40
35523;DHT22;61478;50.820;4.330;2022-08-14T02:44:13;22.80;74.70
35523;DHT22;61478;50.820;4.330;2022-08-14T02:46:40;22.60;75.00
35523;DHT22;61478;50.820;4.330;2022-08-14T02:49:10;22.60;74.10
35523;DHT22;61478;50.820;4.330;2022-08-14T02:51:36;22.60;75.10
35523;DHT22;61478;50.820;4.330;2022-08-14T02:54:03;22.70;75.30
35523;DHT22;61478;50.820;4.330;2022-08-14T02:56:29;22.80;75.00
35523;DHT22;61478;50.820;4.330;2022-08-14T02:58:56;22.80;75.30
35523;DHT22;61478;50.820;4.330;2022-08-14T03:01:23;22.90;75.30
35523;DHT22;61478;50.820;4.330;2022-08-14T03:03:50;22.60;76.50
35523;DHT22;61478;50.820;4.330;2022-08-14T03:06:18;22.60;75.70
35523;DHT22;61478;50.820;4.330;2022-08-14T03:08:52;22.50;76.00
35523;DHT22;61478;50.820;4.330;2022-08-14T03:11:18;22.50;76.50
35523;DHT22;61478;50.820;4.330;2022-08-14T03:13:49;22.50;75.90
35523;DHT22;61478;50.820;4.330;2022-08-14T03:16:20;22.50;76.40
35523;DHT22;61478;50.820;4.330;2022-08-14T03:18:48;22.50;77.00
35523;DHT22;61478;50.820;4.330;2022-08-14T03:21:19;22.50;76.40
35523;DHT22;61478;50.820;4.330;2022-08-14T03:23:50;22.60;75.40
35523;DHT22;61478;50.820;4.330;2022-08-14T03:26:21;22.60;77.00
35523;DHT22;61478;50.820;4.330;2022-08-14T03:28:52;22.60;77.70
35523;DHT22;61478;50.820;4.330;2022-08-14T03:31:24;22.60;78.10
35523;DHT22;61478;50.820;4.330;2022-08-14T03:33:52;22.60;78.10
35523;DHT22;61478;50.820;4.330;2022-08-14T03:36:19;22.50;77.00
35523;DHT22;61478;50.820;4.330;2022-08-14T03:38:49;22.60;76.60
35523;DHT22;61478;50.820;4.330;2022-08-14T03:41:18;22.70;76.30
35523;DHT22;61478;50.820;4.330;2022-08-14T03:43:49;22.70;75.10
35523;DHT22;61478;50.820;4.330;2022-08-14T03:46:16;22.80;76.30
35523;DHT22;61478;50.820;4.330;2022-08-14T03:48:44;22.80;76.60
35523;DHT22;61478;50.820;4.330;2022-08-14T03:51:11;22.70;77.00
35523;DHT22;61478;50.820;4.330;2022-08-14T03:53:44;22.70;75.80
35523;DHT22;61478;50.820;4.330;2022-08-14T03:56:15;22.80;74.20
35523;DHT22;61478;50.820;4.330;2022-08-14T03:58:47;23.10;71.90
35523;DHT22;61478;50.820;4.330;2022-08-14T04:01:19;23.50;69.90
35523;DHT22;61478;50.820;4.330;2022-08-14T04:03:51;23.70;67.20
35523;DHT22;61478;50.820;4.330;2022-08-14T04:06:22;23.90;68.50
35523;DHT22;61478;50.820;4.330;2022-08-14T04:08:49;23.60;71.00
35523;DHT22;61478;50.820;4.330;2022-08-14T04:11:15;23.50;72.70
35523;DHT22;61478;50.820;4.330;2022-08-14T04:13:42;23.30;73.30
35523;DHT22;61478;50.820;4.330;2022-08-14T04:16:11;23.20;73.00
35523;DHT22;61478;50.820;4.330;2022-08-14T04:18:40;23.10;75.60
35523;DHT22;61478;50.820;4.330;2022-08-14T04:21:10;23.10;74.50
35523;DHT22;61478;50.820;4.330;2022-08-14T04:23:38;23.20;75.00
35523;DHT22;61478;50.820;4.330;2022-08-14T04:26:09;23.10;72.30
35523;DHT22;61478;50.820;4.330;2022-08-14T04:28:36;22.80;76.80
35523;DHT22;61478;50.820;4.330;2022-08-14T04:31:06;22.80;75.20
35523;DHT22;61478;50.820;4.330;2022-08-14T04:33:33;22.80;76.70
35523;DHT22;61478;50.820;4.330;2022-08-14T04:35:59;23.00;74.00
35523;DHT22;61478;50.820;4.330;2022-08-14T04:38:25;22.80;76.00
35523;DHT22;61478;50.820;4.330;2022-08-14T04:41:10;22.60;77.00
35523;DHT22;61478;50.820;4.330;2022-08-14T04:43:55;22.40;78.30
35523;DHT22;61478;50.820;4.330;2022-08-14T04:46:22;22.20;78.50
35523;DHT22;61478;50.820;4.330;2022-08-14T04:48:49;22.20;78.90
35523;DHT22;61478;50.820;4.330;2022-08-14T04:51:17;22.20;78.20
35523;DHT22;61478;50.820;4.330;2022-08-14T04:53:46;21.90;78.70
35523;DHT22;61478;50.820;4.330;2022-08-14T04:56:15;21.80;78.20
35523;DHT22;61478;50.820;4.330;2022-08-14T04:58:44;21.90;78.50
35523;DHT22;61478;50.820;4.330;2022-08-14T05:01:12;22.10;78.40
35523;DHT22;61478;50.820;4.330;2022-08-14T05:03:39;22.40;78.70
35523;DHT22;61478;50.820;4.330;2022-08-14T05:06:08;22.50;78.50
35523;DHT22;61478;50.820;4.330;2022-08-14T05:08:36;22.50;78.90
35523;DHT22;61478;50.820;4.330;2022-08-14T05:11:04;22.50;79.00
35523;DHT22;61478;50.820;4.330;2022-08-14T05:13:35;22.50;79.00
35523;DHT22;61478;50.820;4.330;2022-08-14T05:16:06;22.70;78.90
35523;DHT22;61478;50.820;4.330;2022-08-14T05:18:36;22.70;77.80
35523;DHT22;61478;50.820;4.330;2022-08-14T05:21:06;22.70;78.20
35523;DHT22;61478;50.820;4.330;2022-08-14T05:23:35;22.70;79.00
35523;DHT22;61478;50.820;4.330;2022-08-14T05:26:02;22.70;78.80
35523;DHT22;61478;50.820;4.330;2022-08-14T05:28:33;22.90;76.60
35523;DHT22;61478;50.820;4.330;2022-08-14T05:31:03;23.10;75.40
35523;DHT22;61478;50.820;4.330;2022-08-14T05:33:32;23.40;74.30
35523;DHT22;61478;50.820;4.330;2022-08-14T05:36:02;23.30;72.70
35523;DHT22;61478;50.820;4.330;2022-08-14T05:38:31;23.50;72.60
35523;DHT22;61478;50.820;4.330;2022-08-14T05:41:15;23.20;74.00
35523;DHT22;61478;50.820;4.330;2022-08-14T05:43:43;23.20;74.90
35523;DHT22;61478;50.820;4.330;2022-08-14T05:46:11;22.90;75.80
35523;DHT22;61478;50.820;4.330;2022-08-14T05:48:38;23.10;74.40
35523;DHT22;61478;50.820;4.330;2022-08-14T05:51:04;23.00;77.10
35523;DHT22;61478;50.820;4.330;2022-08-14T05:53:33;23.10;74.20
35523;DHT22;61478;50.820;4.330;2022-08-14T05:55:59;23.00;75.40
35523;DHT22;61478;50.820;4.330;2022-08-14T05:58:25;23.10;76.40
35523;DHT22;61478;50.820;4.330;2022-08-14T06:00:52;22.80;77.40
35523;DHT22;61478;50.820;4.330;2022-08-14T06:03:21;22.80;77.40
35523;DHT22;61478;50.820;4.330;2022-08-14T06:05:52;22.50;80.00
35523;DHT22;61478;50.820;4.330;2022-08-14T06:08:29;22.40;80.20
35523;DHT22;61478;50.820;4.330;2022-08-14T06:10:57;22.20;81.70
35523;DHT22;61478;50.820;4.330;2022-08-14T06:13:29;22.10;82.50
35523;DHT22;61478;50.820;4.330;2022-08-14T06:15:58;21.90;83.60
35523;DHT22;61478;50.820;4.330;2022-08-14T06:18:24;21.80;83.60
35523;DHT22;61478;50.820;4.330;2022-08-14T06:20:51;21.90;83.00
35523;DHT22;61478;50.820;4.330;2022-08-14T06:23:20;21.90;84.60
35523;DHT22;61478;50.820;4.330;2022-08-14T06:25:46;22.00;83.30
35523;DHT22;61478;50.820;4.330;2022-08-14T06:28:17;22.10;82.40
35523;DHT22;61478;50.820;4.330;2022-08-14T06:30:49;22.10;85.00
35523;DHT22;61478;50.820;4.330;2022-08-14T06:33:19;22.10;82.90
35523;DHT22;61478;50.820;4.330;2022-08-14T06:35:46;22.30;83.80
35523;DHT22;61478;50.820;4.330;2022-08-14T06:38:17;22.50;83.30
35523;DHT22;61478;50.820;4.330;2022-08-14T06:40:44;22.70;84.70
35523;DHT22;61478;50.820;4.330;2022-08-14T06:43:17;22.60;87.20
35523;DHT22;61478;50.820;4.330;2022-08-14T06:45:48;22.40;84.90
35523;DHT22;61478;50.820;4.330;2022-08-14T06:48:19;22.50;86.90
35523;DHT22;61478;50.820;4.330;2022-08-14T06:50:48;22.60;84.60
35523;DHT22;61478;50.820;4.330;2022-08-14T06:53:14;22.70;85.60
35523;DHT22;61478;50.820;4.330;2022-08-14T06:55:44;22.80;81.60
35523;DHT22;61478;50.820;4.330;2022-08-14T06:58:15;22.80;83.40
35523;DHT22;61478;50.820;4.330;2022-08-14T07:00:45;22.90;81.60
35523;DHT22;61478;50.820;4.330;2022-08-14T07:03:30;23.10;85.10
35523;DHT22;61478;50.820;4.330;2022-08-14T07:06:15;23.30;76.00
35523;DHT22;61478;50.820;4.330;2022-08-14T07:08:42;23.30;82.50
35523;DHT22;61478;50.820;4.330;2022-08-14T07:11:11;23.60;77.50
35523;DHT22;61478;50.820;4.330;2022-08-14T07:13:40;23.90;75.20
35523;DHT22;61478;50.820;4.330;2022-08-14T07:16:07;24.00;71.30
35523;DHT22;61478;50.820;4.330;2022-08-14T07:18:35;24.10;73.10
35523;DHT22;61478;50.820;4.330;2022-08-14T07:21:02;24.30;75.20
35523;DHT22;61478;50.820;4.330;2022-08-14T07:23:29;24.20;75.20
35523;DHT22;61478;50.820;4.330;2022-08-14T07:25:56;24.10;80.00
35523;DHT22;61478;50.820;4.330;2022-08-14T07:28:23;24.10;80.10
35523;DHT22;61478;50.820;4.330;2022-08-14T07:30:51;24.20;81.20
35523;DHT22;61478;50.820;4.330;2022-08-14T07:33:20;24.20;79.20
35523;DHT22;61478;50.820;4.330;2022-08-14T07:35:50;24.40;77.50
35523;DHT22;61478;50.820;4.330;2022-08-14T07:38:18;24.50;81.40
35523;DHT22;61478;50.820;4.330;2022-08-14T07:40:49;24.70;77.50
35523;DHT22;61478;50.820;4.330;2022-08-14T07:43:18;24.90;70.50
35523;DHT22;61478;50.820;4.330;2022-08-14T07:45:44;25.10;73.30
35523;DHT22;61478;50.820;4.330;2022-08-14T07:48:10;25.00;79.80
35523;DHT22;61478;50.820;4.330;2022-08-14T07:50:37;25.00;78.10
35523;DHT22;61478;50.820;4.330;2022-08-14T07:53:06;25.10;71.80
35523;DHT22;61478;50.820;4.330;2022-08-14T07:55:35;25.30;74.60
35523;DHT22;61478;50.820;4.330;2022-08-14T07:58:02;25.30;78.10
35523;DHT22;61478;50.820;4.330;2022-08-14T08:00:28;25.40;70.60
35523;DHT22;61478;50.820;4.330;2022-08-14T08:02:55;25.60;71.30
35523;DHT22;61478;50.820;4.330;2022-08-14T08:05:23;25.80;73.40
35523;DHT22;61478;50.820;4.330;2022-08-14T08:07:51;26.10;65.40
35523;DHT22;61478;50.820;4.330;2022-08-14T08:10:23;26.20;66.40
35523;DHT22;61478;50.820;4.330;2022-08-14T08:13:01;26.40;69.60
35523;DHT22;61478;50.820;4.330;2022-08-14T08:15:31;26.60;65.50
35523;DHT22;61478;50.820;4.330;2022-08-14T08:17:59;26.60;69.80
35523;DHT22;61478;50.820;4.330;2022-08-14T08:20:31;26.80;69.50
35523;DHT22;61478;50.820;4.330;2022-08-14T08:22:58;26.90;70.30
35523;DHT22;61478;50.820;4.330;2022-08-14T08:25:26;27.00;63.20
35523;DHT22;61478;50.820;4.330;2022-08-14T08:28:09;27.30;67.20
35523;DHT22;61478;50.820;4.330;2022-08-14T08:30:52;27.40;64.10
35523;DHT22;61478;50.820;4.330;2022-08-14T08:33:20;27.50;60.30
35523;DHT22;61478;50.820;4.330;2022-08-14T08:35:47;27.80;61.20
35523;DHT22;61478;50.820;4.330;2022-08-14T08:38:21;28.00;64.30
35523;DHT22;61478;50.820;4.330;2022-08-14T08:40:49;28.20;57.70
35523;DHT22;61478;50.820;4.330;2022-08-14T08:43:29;28.30;59.70
35523;DHT22;61478;50.820;4.330;2022-08-14T08:46:04;28.40;59.10
35523;DHT22;61478;50.820;4.330;2022-08-14T08:48:47;28.40;63.60
35523;DHT22;61478;50.820;4.330;2022-08-14T08:51:25;28.50;59.80
35523;DHT22;61478;50.820;4.330;2022-08-14T08:54:06;28.50;63.80
35523;DHT22;61478;50.820;4.330;2022-08-14T08:56:47;28.70;57.80
35523;DHT22;61478;50.820;4.330;2022-08-14T09:01:48;28.60;59.70
35523;DHT22;61478;50.820;4.330;2022-08-14T09:04:16;28.70;62.70
35523;DHT22;61478;50.820;4.330;2022-08-14T09:06:44;28.80;59.40
35523;DHT22;61478;50.820;4.330;2022-08-14T09:09:28;28.90;63.50
35523;DHT22;61478;50.820;4.330;2022-08-14T09:11:56;29.00;63.70
35523;DHT22;61478;50.820;4.330;2022-08-14T09:14:26;29.10;63.30
35523;DHT22;61478;50.820;4.330;2022-08-14T09:16:54;29.30;64.70
35523;DHT22;61478;50.820;4.330;2022-08-14T09:19:24;29.50;58.00
35523;DHT22;61478;50.820;4.330;2022-08-14T09:21:50;29.60;60.70
35523;DHT22;61478;50.820;4.330;2022-08-14T09:24:18;29.70;57.70
35523;DHT22;61478;50.820;4.330;2022-08-14T09:26:44;29.80;56.10
35523;DHT22;61478;50.820;4.330;2022-08-14T09:29:12;30.10;55.70
35523;DHT22;61478;50.820;4.330;2022-08-14T09:31:43;30.20;55.90
35523;DHT22;61478;50.820;4.330;2022-08-14T09:40:03;30.20;55.70
35523;DHT22;61478;50.820;4.330;2022-08-14T09:45:34;30.20;55.00
35523;DHT22;61478;50.820;4.330;2022-08-14T09:48:01;30.40;54.50
35523;DHT22;61478;50.820;4.330;2022-08-14T09:50:52;30.80;56.20
35523;DHT22;61478;50.820;4.330;2022-08-14T09:53:42;31.20;54.30
35523;DHT22;61478;50.820;4.330;2022-08-14T09:56:09;31.70;53.50
35523;DHT22;61478;50.820;4.330;2022-08-14T09:58:38;31.90;53.40
35523;DHT22;61478;50.820;4.330;2022-08-14T10:01:13;32.40;52.60
35523;DHT22;61478;50.820;4.330;2022-08-14T10:03:53;32.90;51.70
35523;DHT22;61478;50.820;4.330;2022-08-14T10:06:25;33.10;51.20
35523;DHT22;61478;50.820;4.330;2022-08-14T10:11:32;34.20;51.10
35523;DHT22;61478;50.820;4.330;2022-08-14T10:14:21;34.20;51.30
35523;DHT22;61478;50.820;4.330;2022-08-14T10:16:55;33.90;50.10
35523;DHT22;61478;50.820;4.330;2022-08-14T10:19:26;33.70;50.60
35523;DHT22;61478;50.820;4.330;2022-08-14T10:22:04;33.40;51.00
35523;DHT22;61478;50.820;4.330;2022-08-14T10:24:37;33.70;49.30
35523;DHT22;61478;50.820;4.330;2022-08-14T10:27:15;34.30;48.20
35523;DHT22;61478;50.820;4.330;2022-08-14T10:29:47;34.70;47.00
35523;DHT22;61478;50.820;4.330;2022-08-14T10:32:14;34.90;45.70
35523;DHT22;61478;50.820;4.330;2022-08-14T10:34:40;35.00;46.10
35523;DHT22;61478;50.820;4.330;2022-08-14T10:37:11;35.20;45.90
35523;DHT22;61478;50.820;4.330;2022-08-14T10:39:40;35.20;44.20
35523;DHT22;61478;50.820;4.330;2022-08-14T10:42:08;35.10;44.10
35523;DHT22;61478;50.820;4.330;2022-08-14T10:44:38;35.20;45.30
35523;DHT22;61478;50.820;4.330;2022-08-14T10:47:06;34.90;45.90
35523;DHT22;61478;50.820;4.330;2022-08-14T10:49:43;35.40;44.40
35523;DHT22;61478;50.820;4.330;2022-08-14T10:52:25;36.00;43.70
35523;DHT22;61478;50.820;4.330;2022-08-14T10:55:06;36.10;43.40
35523;DHT22;61478;50.820;4.330;2022-08-14T10:57:50;36.30;44.10
35523;DHT22;61478;50.820;4.330;2022-08-14T11:00:21;36.30;44.20
35523;DHT22;61478;50.820;4.330;2022-08-14T11:03:04;36.50;42.60
35523;DHT22;61478;50.820;4.330;2022-08-14T11:05:48;36.30;42.50
35523;DHT22;61478;50.820;4.330;2022-08-14T11:08:31;35.80;42.70
35523;DHT22;61478;50.820;4.330;2022-08-14T11:11:02;35.80;43.40
35523;DHT22;61478;50.820;4.330;2022-08-14T11:13:31;35.50;41.40
35523;DHT22;61478;50.820;4.330;2022-08-14T11:15:59;35.60;42.20
35523;DHT22;61478;50.820;4.330;2022-08-14T11:18:28;35.50;44.50
35523;DHT22;61478;50.820;4.330;2022-08-14T11:20:59;35.20;44.00
35523;DHT22;61478;50.820;4.330;2022-08-14T11:23:30;35.10;43.70
35523;DHT22;61478;50.820;4.330;2022-08-14T11:25:58;34.90;45.40
35523;DHT22;61478;50.820;4.330;2022-08-14T11:28:32;34.90;44.40
35523;DHT22;61478;50.820;4.330;2022-08-14T11:31:04;34.70;43.20
35523;DHT22;61478;50.820;4.330;2022-08-14T11:33:33;35.00;42.90
35523;DHT22;61478;50.820;4.330;2022-08-14T11:36:03;34.40;42.60
35523;DHT22;61478;50.820;4.330;2022-08-14T11:38:38;34.30;42.70
35523;DHT22;61478;50.820;4.330;2022-08-14T11:41:06;34.50;43.40
35523;DHT22;61478;50.820;4.330;2022-08-14T11:43:42;34.90;44.40
35523;DHT22;61478;50.820;4.330;2022-08-14T11:46:09;35.00;42.40
35523;DHT22;61478;50.820;4.330;2022-08-14T11:48:48;34.70;42.20
35523;DHT22;61478;50.820;4.330;2022-08-14T11:51:17;35.10;41.30
35523;DHT22;61478;50.820;4.330;2022-08-14T11:53:56;35.40;41.10
35523;DHT22;61478;50.820;4.330;2022-08-14T11:56:36;35.30;42.20
35523;DHT22;61478;50.820;4.330;2022-08-14T11:59:22;35.00;41.50
35523;DHT22;61478;50.820;4.330;2022-08-14T12:01:54;34.80;42.70
35523;DHT22;61478;50.820;4.330;2022-08-14T12:04:20;35.00;42.60
35523;DHT22;61478;50.820;4.330;2022-08-14T12:06:54;35.30;42.10
35523;DHT22;61478;50.820;4.330;2022-08-14T12:09:31;35.30;41.50
35523;DHT22;61478;50.820;4.330;2022-08-14T12:11:57;35.20;41.70
35523;DHT22;61478;50.820;4.330;2022-08-14T12:14:24;34.90;40.60
35523;DHT22;61478;50.820;4.330;2022-08-14T12:17:06;34.80;41.80
35523;DHT22;61478;50.820;4.330;2022-08-14T12:22:14;35.00;40.60
35523;DHT22;61478;50.820;4.330;2022-08-14T12:24:43;35.10;40.30
35523;DHT22;61478;50.820;4.330;2022-08-14T12:27:10;34.90;40.00
35523;DHT22;61478;50.820;4.330;2022-08-14T12:29:50;34.70;40.50
35523;DHT22;61478;50.820;4.330;2022-08-14T12:32:17;34.80;40.20
35523;DHT22;61478;50.820;4.330;2022-08-14T12:34:43;35.00;40.60
35523;DHT22;61478;50.820;4.330;2022-08-14T12:37:16;35.00;39.50
35523;DHT22;61478;50.820;4.330;2022-08-14T12:39:42;35.10;39.60
35523;DHT22;61478;50.820;4.330;2022-08-14T12:42:11;34.50;40.00
35523;DHT22;61478;50.820;4.330;2022-08-14T12:44:40;34.30;40.70
35523;DHT22;61478;50.820;4.330;2022-08-14T12:47:12;34.20;41.50
35523;DHT22;61478;50.820;4.330;2022-08-14T12:49:52;34.10;41.90
35523;DHT22;61478;50.820;4.330;2022-08-14T12:52:33;34.30;41.80
35523;DHT22;61478;50.820;4.330;2022-08-14T12:55:04;34.40;41.90
35523;DHT22;61478;50.820;4.330;2022-08-14T12:57:39;34.50;42.20
35523;DHT22;61478;50.820;4.330;2022-08-14T13:00:19;34.70;42.50
35523;DHT22;61478;50.820;4.330;2022-08-14T13:02:48;34.60;41.90
35523;DHT22;61478;50.820;4.330;2022-08-14T13:05:27;34.10;40.60
35523;DHT22;61478;50.820;4.330;2022-08-14T13:07:58;34.10;41.80
35523;DHT22;61478;50.820;4.330;2022-08-14T13:10:25;34.10;41.70
35523;DHT22;61478;50.820;4.330;2022-08-14T13:12:56;34.30;41.60
35523;DHT22;61478;50.820;4.330;2022-08-14T13:15:26;34.40;42.80
35523;DHT22;61478;50.820;4.330;2022-08-14T13:17:56;34.40;42.10
35523;DHT22;61478;50.820;4.330;2022-08-14T13:20:26;34.60;42.60
35523;DHT22;61478;50.820;4.330;2022-08-14T13:22:56;34.30;41.40
35523;DHT22;61478;50.820;4.330;2022-08-14T13:25:27;34.40;42.40
35523;DHT22;61478;50.820;4.330;2022-08-14T13:27:56;34.60;41.60
35523;DHT22;61478;50.820;4.330;2022-08-14T13:30:26;34.50;41.30
35523;DHT22;61478;50.820;4.330;2022-08-14T13:32:55;34.30;42.70
35523;DHT22;61478;50.820;4.330;2022-08-14T13:35:22;34.00;41.50
35523;DHT22;61478;50.820;4.330;2022-08-14T13:37:50;33.90;42.60
35523;DHT22;61478;50.820;4.330;2022-08-14T13:40:17;34.10;42.70
35523;DHT22;61478;50.820;4.330;2022-08-14T13:42:46;33.70;42.00
35523;DHT22;61478;50.820;4.330;2022-08-14T13:45:16;33.70;42.00
35523;DHT22;61478;50.820;4.330;2022-08-14T13:47:43;33.80;41.90
35523;DHT22;61478;50.820;4.330;2022-08-14T13:50:12;33.90;42.20
35523;DHT22;61478;50.820;4.330;2022-08-14T13:52:48;33.90;43.20
35523;DHT22;61478;50.820;4.330;2022-08-14T13:55:26;33.90;42.90
35523;DHT22;61478;50.820;4.330;2022-08-14T13:58:00;34.20;42.10
35523;DHT22;61478;50.820;4.330;2022-08-14T14:00:30;34.20;43.30
35523;DHT22;61478;50.820;4.330;2022-08-14T14:02:57;33.70;41.90
35523;DHT22;61478;50.820;4.330;2022-08-14T14:05:25;33.80;41.40
35523;DHT22;61478;50.820;4.330;2022-08-14T14:07:57;33.90;42.20
35523;DHT22;61478;50.820;4.330;2022-08-14T14:10:28;33.90;42.10
35523;DHT22;61478;50.820;4.330;2022-08-14T14:13:01;34.00;41.00
35523;DHT22;61478;50.820;4.330;2022-08-14T14:15:27;33.80;40.60
35523;DHT22;61478;50.820;4.330;2022-08-14T14:17:54;33.80;41.70
35523;DHT22;61478;50.820;4.330;2022-08-14T14:20:21;33.70;42.40
35523;DHT22;61478;50.820;4.330;2022-08-14T14:22:50;33.50;42.90
35523;DHT22;61478;50.820;4.330;2022-08-14T14:25:19;33.40;44.20
35523;DHT22;61478;50.820;4.330;2022-08-14T14:27:49;33.30;42.70
35523;DHT22;61478;50.820;4.330;2022-08-14T14:30:16;33.20;44.40
35523;DHT22;61478;50.820;4.330;2022-08-14T14:32:44;33.10;41.80
35523;DHT22;61478;50.820;4.330;2022-08-14T14:35:15;33.30;41.90
35523;DHT22;61478;50.820;4.330;2022-08-14T14:37:43;33.30;42.80
35523;DHT22;61478;50.820;4.330;2022-08-14T14:40:10;33.40;42.00
35523;DHT22;61478;50.820;4.330;2022-08-14T14:42:48;33.30;42.30
35523;DHT22;61478;50.820;4.330;2022-08-14T14:45:17;33.10;42.20
35523;DHT22;61478;50.820;4.330;2022-08-14T14:47:55;33.00;43.30
35523;DHT22;61478;50.820;4.330;2022-08-14T14:50:22;32.90;42.80
35523;DHT22;61478;50.820;4.330;2022-08-14T14:52:48;32.80;43.30
35523;DHT22;61478;50.820;4.330;2022-08-14T14:55:17;32.90;44.30
35523;DHT22;61478;50.820;4.330;2022-08-14T14:57:45;32.90;43.50
35523;DHT22;61478;50.820;4.330;2022-08-14T15:00:15;33.00;44.90
35523;DHT22;61478;50.820;4.330;2022-08-14T15:02:44;33.00;45.60
35523;DHT22;61478;50.820;4.330;2022-08-14T15:05:12;33.10;46.20
35523;DHT22;61478;50.820;4.330;2022-08-14T15:07:39;33.20;45.80
35523;DHT22;61478;50.820;4.330;2022-08-14T15:10:08;33.00;43.30
35523;DHT22;61478;50.820;4.330;2022-08-14T15:12:34;33.20;45.60
35523;DHT22;61478;50.820;4.330;2022-08-14T15:15:01;33.40;47.80
35523;DHT22;61478;50.820;4.330;2022-08-14T15:17:27;33.30;43.50
35523;DHT22;61478;50.820;4.330;2022-08-14T15:20:14;33.40;44.90
35523;DHT22;61478;50.820;4.330;2022-08-14T15:22:40;33.50;44.20
35523;DHT22;61478;50.820;4.330;2022-08-14T15:25:09;33.60;44.40
35523;DHT22;61478;50.820;4.330;2022-08-14T15:27:39;33.80;45.50
35523;DHT22;61478;50.820;4.330;2022-08-14T15:30:07;33.60;48.10
35523;DHT22;61478;50.820;4.330;2022-08-14T15:32:33;33.50;45.90
35523;DHT22;61478;50.820;4.330;2022-08-14T15:34:59;33.60;45.10
35523;DHT22;61478;50.820;4.330;2022-08-14T15:37:26;33.70;46.00
35523;DHT22;61478;50.820;4.330;2022-08-14T15:39:52;33.70;47.60
35523;DHT22;61478;50.820;4.330;2022-08-14T15:42:19;33.70;46.00
35523;DHT22;61478;50.820;4.330;2022-08-14T15:44:47;33.70;45.50
35523;DHT22;61478;50.820;4.330;2022-08-14T15:47:14;33.70;46.30
35523;DHT22;61478;50.820;4.330;2022-08-14T15:49:41;33.80;47.50
35523;DHT22;61478;50.820;4.330;2022-08-14T15:52:10;33.60;48.60
35523;DHT22;61478;50.820;4.330;2022-08-14T15:54:36;33.60;50.70
35523;DHT22;61478;50.820;4.330;2022-08-14T15:57:05;33.30;49.70
35523;DHT22;61478;50.820;4.330;2022-08-14T15:59:32;33.40;47.20
35523;DHT22;61478;50.820;4.330;2022-08-14T16:02:24;33.40;49.90
35523;DHT22;61478;50.820;4.330;2022-08-14T16:04:52;33.30;52.30
35523;DHT22;61478;50.820;4.330;2022-08-14T16:07:18;33.00;51.60
35523;DHT22;61478;50.820;4.330;2022-08-14T16:09:44;32.80;54.30